Molokai Airport Kaunakakai US
ICAO: PHMK
IATA:
Category: Medium
Scheduled Services:

Elevation: 454 ft
TransAlt. 18000 ft.

Airport Communications:
ATIS:128.2
HONOLULU CNTR:124.1
CTAF:125.7
GND:121.9
HONOLULU RDO:116.1
TWR:125.7

PHMK Zoom In..

Runways:

(A) RW 05 length 4494 ft width 100 ft
---- / hdg 49

(B) RW 17 length 3118 ft width 100 ft
---- / hdg 169

(C) RW 23 length 4494 ft width 100 ft
---- / hdg 229

(D) RW 35 length 3118 ft width 100 ft
---- / hdg 349

Location; PHMK
Day. 25 / Time. 10.08 Zulu
* Altimeter: 30.12
* Temperature: 23° c. 73.4°f.
* Wind from: 040° Speed 12 kn with Gusts up to 20 kn.
Dewpoint: 19° c.
Visibility: 10 Statute Miles.
Clouds: Scattered 1200 ft.
Clouds: Broken 2000 ft.
Clouds: Overcast 2700 ft.

PHMK 251008Z AUTO 04012G20KT 10SM SCT012 BKN020 OVC027 23/19 A3012 RMK AO2 T02280189 TSNO $


Wind From 040°
Speed 12 kn.

  YouTube Music Video
 
jpsmedia.com for Web Design  worldairports.se 2018   terms of use